LFOP 140500Z AUTO 09010KT 9999 FEW014 OVC030 13/12 Q1008

ElémentsDécodage
LFOP Station météo située sur l'aérodrome de ROUEN Vallée-de-Seine
140500Z émis le 14 du mois à 05h00 UTC
AUTO Bulletin édité par un automate
09010KT vent du 090°, 10 noeuds
9999 visibilité horizontale supérieure à 10 Km
FEW014 nuages rares (1/8 à 2/8) à 1400 pieds
OVC030 couverture nuageuse totale (8/8) à 3000 pieds
13/12 température 13°C, point de rosée 12°C
 soit une humidité relative de 94%
Q1008 la pression au niveau de la mer (QNH) est de 1008 hPa